SPEO2: Bird Creek, Sperry, OK

Data processed at Sun Dec 16 2018 23:32


All information presented herein is the property of the government of the United States of America and may be revised or deleted at any time without prior notice.
Dissemination of this information without the expressed written consent of the Public Affairs Office, Tulsa District U.S. Army Corps of Engineers is strictly prohibited.
These data are gathered electronically and, as presented, have not undergone any form of quality control. These data are not guaranteed to be valid or correct.
Go to home page.
Go to station list.
Go to home page.

Upstream stations:

Downstream station:
Previous Day
Next Day
Current Day
    
SHEF ID:       SPEO2     Bird Creek near Sperry, OK
STATION TYPE:  

               PRECIP     STAGE  STAGE(2)  RIV-FLOW  WTR-TEMP   DIS-OXY        PH   CONDUCT  BAT-LOAD
                   in        ft        ft       cfs         F      mg/l        su   umho/cm      volt
              Ccp-Rev   Ccp-Rev   Ccp-Rev   Ccp-Rev   Ccp-Rev   Ccp-Rev   Ccp-Rev   Ccp-Rev   Ccp-Rev
(US/Central)
12/16 00:00      0.00      1.58      1.53        65     42.12     10.68      7.67       315     11.86
12/16 01:00      0.00      1.58      1.53        65     42.04     10.74      7.67       315     11.77
12/16 02:00      0.00      1.58      1.53        65     42.04     10.82      7.68       315     11.77
12/16 03:00      0.00      1.58      1.53        65     42.03     10.90      7.69       315     11.77
12/16 04:00      0.00      1.58      1.53        65     42.04     10.99      7.69       314     11.77
12/16 05:00      0.00      1.58      1.52        65     42.10     11.04      7.70       314     11.77
12/16 06:00      0.00      1.58      1.52        65     42.21     11.06      7.70       313     11.77
12/16 07:00      0.00      1.58      1.52        65     42.28     11.04      7.70       313     11.77
12/16 08:00      0.00      1.57      1.52        64     42.31     11.02      7.70       313     11.77
12/16 09:00      0.00      1.57      1.52        64     42.33     10.98      7.70       313     11.77
12/16 10:00      0.00      1.57      1.52        64     42.31     10.95      7.69       313     11.86
12/16 11:00      0.01      1.57      1.53        64     42.28     10.92      7.69       312     12.09
12/16 12:00      0.01      1.57      1.53        64     42.39     10.97      7.70       312     12.17
12/16 13:00      0.00      1.56      1.53        62     42.48     11.00      7.69       312     12.17
12/16 14:00      0.00      1.57      1.53        64     42.49     11.06      7.70       312     12.25
12/16 15:00      0.00      1.57      1.53        64     42.66     11.30      7.72       311     12.33
12/16 16:00      0.00      1.58      1.54        65     42.67     11.27      7.71       312     12.41
12/16 17:00      0.00      1.59      1.55        67     42.58     11.25      7.70       312     12.25
12/16 18:00      0.00      1.60      1.55        69     42.39     11.20      7.70       312     12.09
12/16 19:00      0.00      1.62      1.57        73     42.08     11.15      7.70       312     12.01
12/16 20:00      0.00      1.64      1.58        76     41.79     11.07      7.70       313     12.01
12/16 21:00      0.00      1.65      1.60        78     41.65     11.08      7.70       313     11.93
12/16 22:00      0.00      1.66      1.61        80     41.63     11.14      7.70       313     11.93
12/16 23:00      0.00      1.67      1.62        82     41.65     11.24      7.71       313     11.86